sensor_id;sensor_type;location;lat;lon;timestamp;temperature;humidity
13796;SHT30;40911;51.552;9.874;2023-07-22T00:01:53;13.27;95.48
13796;SHT30;40911;51.552;9.874;2023-07-22T00:04:14;13.23;95.47
13796;SHT30;40911;51.552;9.874;2023-07-22T00:06:36;13.22;95.60
13796;SHT30;40911;51.552;9.874;2023-07-22T00:08:59;13.22;95.51
13796;SHT30;40911;51.552;9.874;2023-07-22T00:11:21;13.20;95.31
13796;SHT30;40911;51.552;9.874;2023-07-22T00:13:42;13.19;95.24
13796;SHT30;40911;51.552;9.874;2023-07-22T00:16:04;13.05;95.46
13796;SHT30;40911;51.552;9.874;2023-07-22T00:18:28;12.92;95.65
13796;SHT30;40911;51.552;9.874;2023-07-22T00:20:49;13.03;95.47
13796;SHT30;40911;51.552;9.874;2023-07-22T00:23:11;12.98;95.69
13796;SHT30;40911;51.552;9.874;2023-07-22T00:25:34;12.91;95.24
13796;SHT30;40911;51.552;9.874;2023-07-22T00:27:56;12.78;95.56
13796;SHT30;40911;51.552;9.874;2023-07-22T00:30:18;12.76;95.66
13796;SHT30;40911;51.552;9.874;2023-07-22T00:32:40;12.76;95.71
13796;SHT30;40911;51.552;9.874;2023-07-22T00:35:02;12.64;95.63
13796;SHT30;40911;51.552;9.874;2023-07-22T00:37:23;12.67;96.03
13796;SHT30;40911;51.552;9.874;2023-07-22T00:39:45;12.69;95.73
13796;SHT30;40911;51.552;9.874;2023-07-22T00:42:08;12.58;95.75
13796;SHT30;40911;51.552;9.874;2023-07-22T00:44:30;12.53;95.50
13796;SHT30;40911;51.552;9.874;2023-07-22T00:46:52;12.15;96.27
13796;SHT30;40911;51.552;9.874;2023-07-22T00:49:16;12.20;96.76
13796;SHT30;40911;51.552;9.874;2023-07-22T00:51:38;12.29;96.20
13796;SHT30;40911;51.552;9.874;2023-07-22T00:53:59;12.23;96.26
13796;SHT30;40911;51.552;9.874;2023-07-22T00:56:21;12.23;96.49
13796;SHT30;40911;51.552;9.874;2023-07-22T00:58:44;12.27;96.01
13796;SHT30;40911;51.552;9.874;2023-07-22T01:01:06;12.23;96.08
13796;SHT30;40911;51.552;9.874;2023-07-22T01:03:28;12.23;96.30
13796;SHT30;40911;51.552;9.874;2023-07-22T01:05:50;12.19;96.36
13796;SHT30;40911;51.552;9.874;2023-07-22T01:08:13;12.06;96.44
13796;SHT30;40911;51.552;9.874;2023-07-22T01:10:35;12.06;96.21
13796;SHT30;40911;51.552;9.874;2023-07-22T01:12:56;12.05;96.22
13796;SHT30;40911;51.552;9.874;2023-07-22T01:15:19;12.15;96.11
13796;SHT30;40911;51.552;9.874;2023-07-22T01:17:41;12.22;95.70
13796;SHT30;40911;51.552;9.874;2023-07-22T01:20:05;11.90;96.01
13796;SHT30;40911;51.552;9.874;2023-07-22T01:22:27;11.96;96.43
13796;SHT30;40911;51.552;9.874;2023-07-22T01:24:51;12.12;95.75
13796;SHT30;40911;51.552;9.874;2023-07-22T01:27:14;12.03;95.99
13796;SHT30;40911;51.552;9.874;2023-07-22T01:29:36;12.17;95.62
13796;SHT30;40911;51.552;9.874;2023-07-22T01:31:58;12.25;94.97
13796;SHT30;40911;51.552;9.874;2023-07-22T01:34:20;12.20;94.94
13796;SHT30;40911;51.552;9.874;2023-07-22T01:36:42;12.17;94.91
13796;SHT30;40911;51.552;9.874;2023-07-22T01:39:03;12.08;95.11
13796;SHT30;40911;51.552;9.874;2023-07-22T01:41:28;12.15;95.23
13796;SHT30;40911;51.552;9.874;2023-07-22T01:43:49;11.96;95.36
13796;SHT30;40911;51.552;9.874;2023-07-22T01:46:11;11.92;95.72
13796;SHT30;40911;51.552;9.874;2023-07-22T01:48:33;11.85;95.46
13796;SHT30;40911;51.552;9.874;2023-07-22T01:50:54;11.82;95.65
13796;SHT30;40911;51.552;9.874;2023-07-22T01:53:16;11.81;95.92
13796;SHT30;40911;51.552;9.874;2023-07-22T01:55:38;11.89;95.27
13796;SHT30;40911;51.552;9.874;2023-07-22T01:58:02;11.93;95.21
13796;SHT30;40911;51.552;9.874;2023-07-22T02:00:23;11.82;95.46
13796;SHT30;40911;51.552;9.874;2023-07-22T02:02:46;11.83;95.41
13796;SHT30;40911;51.552;9.874;2023-07-22T02:05:08;11.83;95.51
13796;SHT30;40911;51.552;9.874;2023-07-22T02:07:30;11.74;95.63
13796;SHT30;40911;51.552;9.874;2023-07-22T02:09:51;11.72;95.81
13796;SHT30;40911;51.552;9.874;2023-07-22T02:12:13;11.78;95.95
13796;SHT30;40911;51.552;9.874;2023-07-22T02:14:36;11.69;95.56
13796;SHT30;40911;51.552;9.874;2023-07-22T02:16:58;11.62;95.60
13796;SHT30;40911;51.552;9.874;2023-07-22T02:19:20;11.57;95.69
13796;SHT30;40911;51.552;9.874;2023-07-22T02:21:42;11.71;95.56
13796;SHT30;40911;51.552;9.874;2023-07-22T02:24:04;11.61;95.53
13796;SHT30;40911;51.552;9.874;2023-07-22T02:26:25;11.41;95.87
13796;SHT30;40911;51.552;9.874;2023-07-22T02:28:47;11.51;95.64
13796;SHT30;40911;51.552;9.874;2023-07-22T02:31:10;11.50;95.62
13796;SHT30;40911;51.552;9.874;2023-07-22T02:33:32;11.47;95.82
13796;SHT30;40911;51.552;9.874;2023-07-22T02:35:54;11.43;95.69
13796;SHT30;40911;51.552;9.874;2023-07-22T02:38:16;11.28;96.12
13796;SHT30;40911;51.552;9.874;2023-07-22T02:40:38;11.39;95.85
13796;SHT30;40911;51.552;9.874;2023-07-22T02:42:59;11.47;95.45
13796;SHT30;40911;51.552;9.874;2023-07-22T02:45:21;11.28;95.41
13796;SHT30;40911;51.552;9.874;2023-07-22T02:47:44;11.22;95.68
13796;SHT30;40911;51.552;9.874;2023-07-22T02:50:07;11.40;95.11
13796;SHT30;40911;51.552;9.874;2023-07-22T02:52:29;11.22;95.67
13796;SHT30;40911;51.552;9.874;2023-07-22T02:55:03;11.16;95.87
13796;SHT30;40911;51.552;9.874;2023-07-22T02:57:25;11.12;96.10
13796;SHT30;40911;51.552;9.874;2023-07-22T02:59:47;11.27;95.83
13796;SHT30;40911;51.552;9.874;2023-07-22T03:02:08;11.27;95.95
13796;SHT30;40911;51.552;9.874;2023-07-22T03:04:35;11.33;96.32
13796;SHT30;40911;51.552;9.874;2023-07-22T03:06:57;11.41;96.30
13796;SHT30;40911;51.552;9.874;2023-07-22T03:09:20;11.48;96.23
13796;SHT30;40911;51.552;9.874;2023-07-22T03:11:42;11.55;96.00
13796;SHT30;40911;51.552;9.874;2023-07-22T03:14:04;11.65;95.58
13796;SHT30;40911;51.552;9.874;2023-07-22T03:16:25;11.62;95.59
13796;SHT30;40911;51.552;9.874;2023-07-22T03:18:47;11.68;95.56
13796;SHT30;40911;51.552;9.874;2023-07-22T03:21:10;11.69;95.46
13796;SHT30;40911;51.552;9.874;2023-07-22T03:23:33;11.75;95.08
13796;SHT30;40911;51.552;9.874;2023-07-22T03:25:54;11.75;94.87
13796;SHT30;40911;51.552;9.874;2023-07-22T03:28:17;11.69;95.05
13796;SHT30;40911;51.552;9.874;2023-07-22T03:30:39;11.65;95.23
13796;SHT30;40911;51.552;9.874;2023-07-22T03:33:00;11.67;95.29
13796;SHT30;40911;51.552;9.874;2023-07-22T03:35:22;11.69;94.76
13796;SHT30;40911;51.552;9.874;2023-07-22T03:37:45;11.68;94.98
13796;SHT30;40911;51.552;9.874;2023-07-22T03:40:08;11.72;94.72
13796;SHT30;40911;51.552;9.874;2023-07-22T03:42:34;11.71;94.87
13796;SHT30;40911;51.552;9.874;2023-07-22T03:44:55;11.74;94.79
13796;SHT30;40911;51.552;9.874;2023-07-22T03:47:19;11.72;94.77
13796;SHT30;40911;51.552;9.874;2023-07-22T03:49:41;11.72;94.81
13796;SHT30;40911;51.552;9.874;2023-07-22T03:52:02;11.58;94.56
13796;SHT30;40911;51.552;9.874;2023-07-22T03:54:26;11.72;94.70
13796;SHT30;40911;51.552;9.874;2023-07-22T03:56:47;11.75;94.81
13796;SHT30;40911;51.552;9.874;2023-07-22T03:59:09;11.71;94.72
13796;SHT30;40911;51.552;9.874;2023-07-22T04:01:31;11.72;94.70
13796;SHT30;40911;51.552;9.874;2023-07-22T04:03:52;11.77;94.54
13796;SHT30;40911;51.552;9.874;2023-07-22T04:06:14;11.81;94.58
13796;SHT30;40911;51.552;9.874;2023-07-22T04:08:36;11.90;94.05
13796;SHT30;40911;51.552;9.874;2023-07-22T04:10:59;11.81;94.56
13796;SHT30;40911;51.552;9.874;2023-07-22T04:13:21;11.92;94.39
13796;SHT30;40911;51.552;9.874;2023-07-22T04:15:43;11.93;94.39
13796;SHT30;40911;51.552;9.874;2023-07-22T04:18:05;12.12;93.64
13796;SHT30;40911;51.552;9.874;2023-07-22T04:20:27;12.15;93.93
13796;SHT30;40911;51.552;9.874;2023-07-22T04:22:48;12.17;93.79
13796;SHT30;40911;51.552;9.874;2023-07-22T04:25:10;12.26;93.30
13796;SHT30;40911;51.552;9.874;2023-07-22T04:27:33;12.27;93.24
13796;SHT30;40911;51.552;9.874;2023-07-22T04:29:55;12.37;92.66
13796;SHT30;40911;51.552;9.874;2023-07-22T04:32:16;12.36;93.02
13796;SHT30;40911;51.552;9.874;2023-07-22T04:34:38;12.43;92.70
13796;SHT30;40911;51.552;9.874;2023-07-22T04:37:00;12.41;93.27
13796;SHT30;40911;51.552;9.874;2023-07-22T04:39:22;12.50;92.84
13796;SHT30;40911;51.552;9.874;2023-07-22T04:41:44;12.58;92.79
13796;SHT30;40911;51.552;9.874;2023-07-22T04:44:07;12.69;92.72
13796;SHT30;40911;51.552;9.874;2023-07-22T04:46:29;12.84;92.14
13796;SHT30;40911;51.552;9.874;2023-07-22T04:48:53;12.92;92.14
13796;SHT30;40911;51.552;9.874;2023-07-22T04:51:15;13.01;91.63
13796;SHT30;40911;51.552;9.874;2023-07-22T04:53:36;13.08;91.56
13796;SHT30;40911;51.552;9.874;2023-07-22T04:55:58;13.18;90.99
13796;SHT30;40911;51.552;9.874;2023-07-22T04:58:20;13.16;90.48
13796;SHT30;40911;51.552;9.874;2023-07-22T05:00:43;13.23;91.13
13796;SHT30;40911;51.552;9.874;2023-07-22T05:03:05;13.29;90.62
13796;SHT30;40911;51.552;9.874;2023-07-22T05:05:26;13.33;90.64
13796;SHT30;40911;51.552;9.874;2023-07-22T05:07:48;13.34;90.52
13796;SHT30;40911;51.552;9.874;2023-07-22T05:10:10;13.30;90.27
13796;SHT30;40911;51.552;9.874;2023-07-22T05:12:32;13.32;90.37
13796;SHT30;40911;51.552;9.874;2023-07-22T05:14:54;13.33;90.69
13796;SHT30;40911;51.552;9.874;2023-07-22T05:17:17;13.41;89.93
13796;SHT30;40911;51.552;9.874;2023-07-22T05:19:39;13.50;89.99
13796;SHT30;40911;51.552;9.874;2023-07-22T05:22:00;13.55;90.91
13796;SHT30;40911;51.552;9.874;2023-07-22T05:24:22;13.50;90.42
13796;SHT30;40911;51.552;9.874;2023-07-22T05:26:43;13.67;90.09
13796;SHT30;40911;51.552;9.874;2023-07-22T05:29:05;13.77;90.27
13796;SHT30;40911;51.552;9.874;2023-07-22T05:31:27;13.61;91.26
13796;SHT30;40911;51.552;9.874;2023-07-22T05:33:50;13.71;92.03
13796;SHT30;40911;51.552;9.874;2023-07-22T05:36:12;13.61;92.71
13796;SHT30;40911;51.552;9.874;2023-07-22T05:38:34;13.77;92.61
13796;SHT30;40911;51.552;9.874;2023-07-22T05:40:55;14.01;91.93
13796;SHT30;40911;51.552;9.874;2023-07-22T05:43:17;14.02;91.92
13796;SHT30;40911;51.552;9.874;2023-07-22T05:45:38;14.19;91.57
13796;SHT30;40911;51.552;9.874;2023-07-22T05:48:00;13.92;92.02
13796;SHT30;40911;51.552;9.874;2023-07-22T05:50:23;14.18;92.16
13796;SHT30;40911;51.552;9.874;2023-07-22T05:52:45;14.46;91.31
13796;SHT30;40911;51.552;9.874;2023-07-22T05:55:08;14.46;90.86
13796;SHT30;40911;51.552;9.874;2023-07-22T05:57:30;14.61;90.75
13796;SHT30;40911;51.552;9.874;2023-07-22T05:59:52;14.70;90.21
13796;SHT30;40911;51.552;9.874;2023-07-22T06:02:13;14.70;90.93
13796;SHT30;40911;51.552;9.874;2023-07-22T06:04:35;14.80;90.07
13796;SHT30;40911;51.552;9.874;2023-07-22T06:06:58;14.96;90.37
13796;SHT30;40911;51.552;9.874;2023-07-22T06:09:20;15.18;89.96
13796;SHT30;40911;51.552;9.874;2023-07-22T06:11:42;15.16;89.60
13796;SHT30;40911;51.552;9.874;2023-07-22T06:14:03;15.15;89.41
13796;SHT30;40911;51.552;9.874;2023-07-22T06:16:25;15.40;88.91
13796;SHT30;40911;51.552;9.874;2023-07-22T06:18:47;15.52;88.97
13796;SHT30;40911;51.552;9.874;2023-07-22T06:21:08;15.60;88.12
13796;SHT30;40911;51.552;9.874;2023-07-22T06:23:32;15.87;88.33
13796;SHT30;40911;51.552;9.874;2023-07-22T06:25:53;15.88;87.07
13796;SHT30;40911;51.552;9.874;2023-07-22T06:28:15;16.22;86.50
13796;SHT30;40911;51.552;9.874;2023-07-22T06:30:37;16.25;84.62
13796;SHT30;40911;51.552;9.874;2023-07-22T06:32:58;16.78;85.84
13796;SHT30;40911;51.552;9.874;2023-07-22T06:35:20;16.90;83.19
13796;SHT30;40911;51.552;9.874;2023-07-22T06:37:42;16.49;82.03
13796;SHT30;40911;51.552;9.874;2023-07-22T06:40:07;16.36;82.03
13796;SHT30;40911;51.552;9.874;2023-07-22T06:42:28;16.45;81.64
13796;SHT30;40911;51.552;9.874;2023-07-22T06:44:50;16.49;82.36
13796;SHT30;40911;51.552;9.874;2023-07-22T06:47:12;15.99;82.00
13796;SHT30;40911;51.552;9.874;2023-07-22T06:49:33;16.43;82.74
13796;SHT30;40911;51.552;9.874;2023-07-22T06:51:55;16.11;81.10
13796;SHT30;40911;51.552;9.874;2023-07-22T06:54:17;16.45;82.65
13796;SHT30;40911;51.552;9.874;2023-07-22T06:56:40;16.46;82.12
13796;SHT30;40911;51.552;9.874;2023-07-22T06:59:01;16.53;82.80
13796;SHT30;40911;51.552;9.874;2023-07-22T07:01:23;16.35;81.28
13796;SHT30;40911;51.552;9.874;2023-07-22T07:03:45;16.50;82.12
13796;SHT30;40911;51.552;9.874;2023-07-22T07:06:07;16.42;81.91
13796;SHT30;40911;51.552;9.874;2023-07-22T07:08:28;16.46;82.01
13796;SHT30;40911;51.552;9.874;2023-07-22T07:10:50;16.45;82.67
13796;SHT30;40911;51.552;9.874;2023-07-22T07:13:13;16.01;83.10
13796;SHT30;40911;51.552;9.874;2023-07-22T07:15:35;16.14;83.30
13796;SHT30;40911;51.552;9.874;2023-07-22T07:17:56;16.14;81.98
13796;SHT30;40911;51.552;9.874;2023-07-22T07:20:18;16.32;81.38
13796;SHT30;40911;51.552;9.874;2023-07-22T07:22:40;16.22;81.96
13796;SHT30;40911;51.552;9.874;2023-07-22T07:25:02;16.25;81.67
13796;SHT30;40911;51.552;9.874;2023-07-22T07:27:23;16.32;80.77
13796;SHT30;40911;51.552;9.874;2023-07-22T07:29:47;16.42;81.47
13796;SHT30;40911;51.552;9.874;2023-07-22T07:32:08;16.66;81.66
13796;SHT30;40911;51.552;9.874;2023-07-22T07:34:30;16.77;80.69
13796;SHT30;40911;51.552;9.874;2023-07-22T07:36:50;16.71;79.38
13796;SHT30;40911;51.552;9.874;2023-07-22T07:39:12;16.63;79.92
13796;SHT30;40911;51.552;9.874;2023-07-22T07:41:34;16.81;80.90
13796;SHT30;40911;51.552;9.874;2023-07-22T07:43:55;16.70;79.97
13796;SHT30;40911;51.552;9.874;2023-07-22T07:46:20;16.97;80.09
13796;SHT30;40911;51.552;9.874;2023-07-22T07:48:42;16.84;80.02
13796;SHT30;40911;51.552;9.874;2023-07-22T07:51:04;16.90;79.30
13796;SHT30;40911;51.552;9.874;2023-07-22T07:53:26;17.21;78.01
13796;SHT30;40911;51.552;9.874;2023-07-22T07:55:47;16.91;78.52
13796;SHT30;40911;51.552;9.874;2023-07-22T07:58:09;17.38;78.63
13796;SHT30;40911;51.552;9.874;2023-07-22T08:00:31;17.26;78.67
13796;SHT30;40911;51.552;9.874;2023-07-22T08:02:55;17.59;78.57
13796;SHT30;40911;51.552;9.874;2023-07-22T08:05:17;17.32;77.73
13796;SHT30;40911;51.552;9.874;2023-07-22T08:07:38;17.35;77.96
13796;SHT30;40911;51.552;9.874;2023-07-22T08:10:00;17.46;77.45
13796;SHT30;40911;51.552;9.874;2023-07-22T08:12:24;17.10;77.38
13796;SHT30;40911;51.552;9.874;2023-07-22T08:14:45;17.63;76.65
13796;SHT30;40911;51.552;9.874;2023-07-22T08:17:07;17.63;77.87
13796;SHT30;40911;51.552;9.874;2023-07-22T08:19:30;17.54;76.77
13796;SHT30;40911;51.552;9.874;2023-07-22T08:21:52;17.73;76.24
13796;SHT30;40911;51.552;9.874;2023-07-22T08:24:13;18.04;75.93
13796;SHT30;40911;51.552;9.874;2023-07-22T08:26:35;18.22;74.93
13796;SHT30;40911;51.552;9.874;2023-07-22T08:28:57;18.22;74.80
13796;SHT30;40911;51.552;9.874;2023-07-22T08:31:18;18.33;74.60
13796;SHT30;40911;51.552;9.874;2023-07-22T08:33:40;19.25;75.43
13796;SHT30;40911;51.552;9.874;2023-07-22T08:36:03;18.66;73.49
13796;SHT30;40911;51.552;9.874;2023-07-22T08:38:25;19.35;71.78
13796;SHT30;40911;51.552;9.874;2023-07-22T08:40:49;18.67;73.40
13796;SHT30;40911;51.552;9.874;2023-07-22T08:43:11;18.52;73.03
13796;SHT30;40911;51.552;9.874;2023-07-22T08:45:35;18.63;72.80
13796;SHT30;40911;51.552;9.874;2023-07-22T08:47:58;18.42;72.50
13796;SHT30;40911;51.552;9.874;2023-07-22T08:50:21;18.75;73.17
13796;SHT30;40911;51.552;9.874;2023-07-22T08:52:47;18.75;71.86
13796;SHT30;40911;51.552;9.874;2023-07-22T08:55:09;18.73;72.35
13796;SHT30;40911;51.552;9.874;2023-07-22T08:57:31;19.11;70.77
13796;SHT30;40911;51.552;9.874;2023-07-22T08:59:53;19.30;71.50
13796;SHT30;40911;51.552;9.874;2023-07-22T09:02:16;19.87;70.25
13796;SHT30;40911;51.552;9.874;2023-07-22T09:04:39;19.84;70.91
13796;SHT30;40911;51.552;9.874;2023-07-22T09:07:01;19.79;70.75
13796;SHT30;40911;51.552;9.874;2023-07-22T09:09:25;20.28;72.67
13796;SHT30;40911;51.552;9.874;2023-07-22T09:11:48;19.41;71.49
13796;SHT30;40911;51.552;9.874;2023-07-22T09:14:10;19.34;71.73
13796;SHT30;40911;51.552;9.874;2023-07-22T09:16:32;19.15;70.38
13796;SHT30;40911;51.552;9.874;2023-07-22T09:18:54;19.99;72.27
13796;SHT30;40911;51.552;9.874;2023-07-22T09:21:17;19.91;72.63
13796;SHT30;40911;51.552;9.874;2023-07-22T09:23:38;19.80;70.89
13796;SHT30;40911;51.552;9.874;2023-07-22T09:26:12;19.39;70.92
13796;SHT30;40911;51.552;9.874;2023-07-22T09:28:47;19.59;69.84
13796;SHT30;40911;51.552;9.874;2023-07-22T09:31:09;19.61;69.28
13796;SHT30;40911;51.552;9.874;2023-07-22T09:33:35;19.80;69.39
13796;SHT30;40911;51.552;9.874;2023-07-22T09:35:57;20.16;68.84
13796;SHT30;40911;51.552;9.874;2023-07-22T09:38:22;20.90;68.20
13796;SHT30;40911;51.552;9.874;2023-07-22T09:40:44;19.65;67.90
13796;SHT30;40911;51.552;9.874;2023-07-22T09:43:09;19.51;68.67
13796;SHT30;40911;51.552;9.874;2023-07-22T09:45:32;19.79;69.48
13796;SHT30;40911;51.552;9.874;2023-07-22T09:47:54;19.35;69.67
13796;SHT30;40911;51.552;9.874;2023-07-22T09:50:18;19.72;69.31
13796;SHT30;40911;51.552;9.874;2023-07-22T09:52:45;19.42;68.46
13796;SHT30;40911;51.552;9.874;2023-07-22T09:55:07;19.25;68.55
13796;SHT30;40911;51.552;9.874;2023-07-22T09:57:29;19.05;68.71
13796;SHT30;40911;51.552;9.874;2023-07-22T09:59:53;19.18;68.94
13796;SHT30;40911;51.552;9.874;2023-07-22T10:02:16;19.20;70.26
13796;SHT30;40911;51.552;9.874;2023-07-22T10:04:39;18.81;69.09
13796;SHT30;40911;51.552;9.874;2023-07-22T10:07:03;18.86;70.75
13796;SHT30;40911;51.552;9.874;2023-07-22T10:09:27;18.76;70.69
13796;SHT30;40911;51.552;9.874;2023-07-22T10:11:49;19.01;70.49
13796;SHT30;40911;51.552;9.874;2023-07-22T10:14:11;19.04;70.38
13796;SHT30;40911;51.552;9.874;2023-07-22T10:16:36;19.34;69.80
13796;SHT30;40911;51.552;9.874;2023-07-22T10:18:59;19.36;68.82
13796;SHT30;40911;51.552;9.874;2023-07-22T10:21:21;19.58;69.12
13796;SHT30;40911;51.552;9.874;2023-07-22T10:23:44;19.53;68.06
13796;SHT30;40911;51.552;9.874;2023-07-22T10:26:06;19.35;68.25
13796;SHT30;40911;51.552;9.874;2023-07-22T10:28:28;19.43;68.05
13796;SHT30;40911;51.552;9.874;2023-07-22T10:30:51;19.42;67.49
13796;SHT30;40911;51.552;9.874;2023-07-22T10:33:14;19.46;68.03
13796;SHT30;40911;51.552;9.874;2023-07-22T10:35:41;19.32;68.11
13796;SHT30;40911;51.552;9.874;2023-07-22T10:38:06;19.35;68.67
13796;SHT30;40911;51.552;9.874;2023-07-22T10:40:29;19.38;68.96
13796;SHT30;40911;51.552;9.874;2023-07-22T10:42:52;19.15;69.15
13796;SHT30;40911;51.552;9.874;2023-07-22T10:45:26;19.42;70.36
13796;SHT30;40911;51.552;9.874;2023-07-22T10:48:00;19.41;69.85
13796;SHT30;40911;51.552;9.874;2023-07-22T10:50:38;19.21;68.96
13796;SHT30;40911;51.552;9.874;2023-07-22T10:53:02;19.43;68.26
13796;SHT30;40911;51.552;9.874;2023-07-22T10:55:25;20.11;69.50
13796;SHT30;40911;51.552;9.874;2023-07-22T10:57:48;20.47;69.19
13796;SHT30;40911;51.552;9.874;2023-07-22T11:00:18;20.71;66.31
13796;SHT30;40911;51.552;9.874;2023-07-22T11:02:41;20.96;65.66
13796;SHT30;40911;51.552;9.874;2023-07-22T11:05:03;20.79;65.06
13796;SHT30;40911;51.552;9.874;2023-07-22T11:07:35;21.03;65.19
13796;SHT30;40911;51.552;9.874;2023-07-22T11:10:14;20.58;65.42
13796;SHT30;40911;51.552;9.874;2023-07-22T11:12:38;19.99;66.24
13796;SHT30;40911;51.552;9.874;2023-07-22T11:15:03;20.01;66.34
13796;SHT30;40911;51.552;9.874;2023-07-22T11:17:28;19.86;66.54
13796;SHT30;40911;51.552;9.874;2023-07-22T11:19:50;19.87;68.84
13796;SHT30;40911;51.552;9.874;2023-07-22T11:22:13;19.91;68.23
13796;SHT30;40911;51.552;9.874;2023-07-22T11:24:36;19.77;69.05
13796;SHT30;40911;51.552;9.874;2023-07-22T11:26:58;19.49;68.71
13796;SHT30;40911;51.552;9.874;2023-07-22T11:29:20;19.58;69.07
13796;SHT30;40911;51.552;9.874;2023-07-22T11:31:43;20.10;68.08
13796;SHT30;40911;51.552;9.874;2023-07-22T11:34:06;21.00;67.23
13796;SHT30;40911;51.552;9.874;2023-07-22T11:36:28;21.06;65.98
13796;SHT30;40911;51.552;9.874;2023-07-22T11:38:50;21.00;62.98
13796;SHT30;40911;51.552;9.874;2023-07-22T11:41:13;21.37;65.14
13796;SHT30;40911;51.552;9.874;2023-07-22T11:43:35;20.77;62.89
13796;SHT30;40911;51.552;9.874;2023-07-22T11:45:57;20.93;65.18
13796;SHT30;40911;51.552;9.874;2023-07-22T11:48:19;20.51;66.03
13796;SHT30;40911;51.552;9.874;2023-07-22T11:50:41;20.71;64.92
13796;SHT30;40911;51.552;9.874;2023-07-22T11:53:02;20.66;65.51
13796;SHT30;40911;51.552;9.874;2023-07-22T11:55:24;20.44;64.35
13796;SHT30;40911;51.552;9.874;2023-07-22T11:57:53;20.58;65.21
13796;SHT30;40911;51.552;9.874;2023-07-22T12:00:15;20.62;62.59
13796;SHT30;40911;51.552;9.874;2023-07-22T12:02:37;20.86;64.55
13796;SHT30;40911;51.552;9.874;2023-07-22T12:05:00;21.00;62.47
13796;SHT30;40911;51.552;9.874;2023-07-22T12:07:24;21.08;63.54
13796;SHT30;40911;51.552;9.874;2023-07-22T12:09:48;20.80;61.89
13796;SHT30;40911;51.552;9.874;2023-07-22T12:12:10;21.48;62.88
13796;SHT30;40911;51.552;9.874;2023-07-22T12:14:36;22.09;63.11
13796;SHT30;40911;51.552;9.874;2023-07-22T12:16:57;21.71;61.88
13796;SHT30;40911;51.552;9.874;2023-07-22T12:19:20;22.05;61.48
13796;SHT30;40911;51.552;9.874;2023-07-22T12:21:41;21.54;62.24
13796;SHT30;40911;51.552;9.874;2023-07-22T12:24:03;22.37;61.64
13796;SHT30;40911;51.552;9.874;2023-07-22T12:26:25;22.09;60.89
13796;SHT30;40911;51.552;9.874;2023-07-22T12:28:47;21.83;60.92
13796;SHT30;40911;51.552;9.874;2023-07-22T12:31:10;21.66;60.49
13796;SHT30;40911;51.552;9.874;2023-07-22T12:33:32;21.81;60.13
13796;SHT30;40911;51.552;9.874;2023-07-22T12:35:55;22.24;60.82
13796;SHT30;40911;51.552;9.874;2023-07-22T12:38:17;21.35;59.71
13796;SHT30;40911;51.552;9.874;2023-07-22T12:40:39;21.81;60.37
13796;SHT30;40911;51.552;9.874;2023-07-22T12:43:01;22.21;61.04
13796;SHT30;40911;51.552;9.874;2023-07-22T12:45:23;22.40;61.57
13796;SHT30;40911;51.552;9.874;2023-07-22T12:47:46;21.88;61.19
13796;SHT30;40911;51.552;9.874;2023-07-22T12:50:09;22.38;61.78
13796;SHT30;40911;51.552;9.874;2023-07-22T12:52:31;21.50;58.16
13796;SHT30;40911;51.552;9.874;2023-07-22T12:54:53;21.26;59.10
13796;SHT30;40911;51.552;9.874;2023-07-22T12:57:14;21.73;60.02
13796;SHT30;40911;51.552;9.874;2023-07-22T12:59:36;22.27;59.45
13796;SHT30;40911;51.552;9.874;2023-07-22T13:01:58;21.83;59.36
13796;SHT30;40911;51.552;9.874;2023-07-22T13:04:21;22.33;60.43
13796;SHT30;40911;51.552;9.874;2023-07-22T13:06:43;22.43;60.19
13796;SHT30;40911;51.552;9.874;2023-07-22T13:09:04;22.40;60.70
13796;SHT30;40911;51.552;9.874;2023-07-22T13:11:26;22.79;57.71
13796;SHT30;40911;51.552;9.874;2023-07-22T13:13:48;23.36;59.16
13796;SHT30;40911;51.552;9.874;2023-07-22T13:16:09;23.39;57.90
13796;SHT30;40911;51.552;9.874;2023-07-22T13:18:31;22.57;56.00
13796;SHT30;40911;51.552;9.874;2023-07-22T13:20:54;22.41;56.20
13796;SHT30;40911;51.552;9.874;2023-07-22T13:23:16;22.44;56.49
13796;SHT30;40911;51.552;9.874;2023-07-22T13:25:38;22.38;57.89
13796;SHT30;40911;51.552;9.874;2023-07-22T13:27:59;22.30;54.02
13796;SHT30;40911;51.552;9.874;2023-07-22T13:30:22;22.24;54.22
13796;SHT30;40911;51.552;9.874;2023-07-22T13:32:44;22.30;55.08
13796;SHT30;40911;51.552;9.874;2023-07-22T13:35:06;22.43;54.97
13796;SHT30;40911;51.552;9.874;2023-07-22T13:37:30;22.47;56.54
13796;SHT30;40911;51.552;9.874;2023-07-22T13:39:52;22.64;56.91
13796;SHT30;40911;51.552;9.874;2023-07-22T13:42:15;22.45;55.47
13796;SHT30;40911;51.552;9.874;2023-07-22T13:44:37;22.69;55.68
13796;SHT30;40911;51.552;9.874;2023-07-22T13:46:59;22.64;54.23
13796;SHT30;40911;51.552;9.874;2023-07-22T13:49:20;22.72;52.89
13796;SHT30;40911;51.552;9.874;2023-07-22T13:51:42;23.24;54.84
13796;SHT30;40911;51.552;9.874;2023-07-22T13:54:05;23.22;54.44
13796;SHT30;40911;51.552;9.874;2023-07-22T13:56:27;23.81;53.39
13796;SHT30;40911;51.552;9.874;2023-07-22T13:58:49;23.33;52.30
13796;SHT30;40911;51.552;9.874;2023-07-22T14:01:10;23.62;52.31
13796;SHT30;40911;51.552;9.874;2023-07-22T14:03:32;24.05;52.21
13796;SHT30;40911;51.552;9.874;2023-07-22T14:05:54;24.20;53.09
13796;SHT30;40911;51.552;9.874;2023-07-22T14:08:16;23.95;52.33
13796;SHT30;40911;51.552;9.874;2023-07-22T14:10:39;23.81;52.49
13796;SHT30;40911;51.552;9.874;2023-07-22T14:13:01;24.53;52.83
13796;SHT30;40911;51.552;9.874;2023-07-22T14:15:23;24.39;52.70
13796;SHT30;40911;51.552;9.874;2023-07-22T14:17:45;23.40;52.05
13796;SHT30;40911;51.552;9.874;2023-07-22T14:20:07;23.84;52.96
13796;SHT30;40911;51.552;9.874;2023-07-22T14:22:32;24.88;53.24
13796;SHT30;40911;51.552;9.874;2023-07-22T14:24:53;24.60;51.66
13796;SHT30;40911;51.552;9.874;2023-07-22T14:27:17;24.15;50.39
13796;SHT30;40911;51.552;9.874;2023-07-22T14:29:38;24.01;52.32
13796;SHT30;40911;51.552;9.874;2023-07-22T14:32:00;24.33;51.27
13796;SHT30;40911;51.552;9.874;2023-07-22T14:34:22;24.12;52.43
13796;SHT30;40911;51.552;9.874;2023-07-22T14:36:43;24.15;51.48
13796;SHT30;40911;51.552;9.874;2023-07-22T14:39:05;24.09;49.89
13796;SHT30;40911;51.552;9.874;2023-07-22T14:41:29;24.30;51.63
13796;SHT30;40911;51.552;9.874;2023-07-22T14:43:52;23.68;52.47
13796;SHT30;40911;51.552;9.874;2023-07-22T14:46:14;23.47;52.74
13796;SHT30;40911;51.552;9.874;2023-07-22T14:48:35;24.32;51.89
13796;SHT30;40911;51.552;9.874;2023-07-22T14:50:57;23.91;51.61
13796;SHT30;40911;51.552;9.874;2023-07-22T14:53:19;24.45;51.11
13796;SHT30;40911;51.552;9.874;2023-07-22T14:55:41;24.53;50.94
13796;SHT30;40911;51.552;9.874;2023-07-22T14:58:02;24.46;51.82
13796;SHT30;40911;51.552;9.874;2023-07-22T15:00:25;24.04;49.87